APL Singapore — WCX8812 — position and weather

sailwx.info

Track history (hours):
 
Tides and Currents Weather Stations Pressure Air Temp Water Temp Dewpoint Dewpoint Depression Visibility Wind Speed Wind Dir Waves Ship Positions

APL Singapore

Owner: APL Maritime, Ltd, Rockville, MD. More information available from US FCC via Universal Licensing System and Coast Guard Vessel Documentation Center.

Last reported at 2018-Jun-18 03:45 UTC. Time now 2018-Jun-19 17:53 UTC.
Position N 36°00' E 120°13'.

Type: Ship (hazmat cat A). MMSI: 368680000.

Date/timePositionNaut miles runAvg speedWind from/ knotsBaromVisibWave heightAir tempDewpointWater temp
2018-Jun-18 03:45N 36°00' E 120°13'0 0.1
2018-Jun-18 03:14N 36°00' E 120°13'0 0.1
2018-Jun-18 02:18N 36°00' E 120°13'0 0.0
2018-Jun-18 02:00N 36°00' E 120°13'0 0.1
2018-Jun-18 01:24N 36°00' E 120°13'0 0.0
2018-Jun-18 00:48N 36°00' E 120°13'0 0.0
2018-Jun-18 00:27N 36°00' E 120°13'0 0.1
2018-Jun-18 00:00N 36°00' E 120°13'0 0.1
2018-Jun-17 23:12N 36°00' E 120°13'0 0.2
2018-Jun-17 22:55N 36°00' E 120°13'0 0.1
2018-Jun-17 22:15N 36°00' E 120°13'0 0.0
2018-Jun-17 19:41N 36°00' E 120°13'0 0.0
2018-Jun-17 17:17N 36°00' E 120°13'  
2018-Jun-10 10:04N 35°04' E 139°42'117.7
2018-Jun-10 09:59N 35°05' E 139°43'714.9
2018-Jun-10 09:30N 35°12' E 139°46'611.9
2018-Jun-10 09:00N 35°17' E 139°45'612.4
2018-Jun-10 08:30N 35°23' E 139°42'3 6.8
2018-Jun-10 08:00N 35°27' E 139°41'0 0.8
2018-Jun-10 07:29N 35°26' E 139°41'0 0.0
2018-Jun-10 06:59N 35°26' E 139°41'0 0.0
2018-Jun-10 06:29N 35°26' E 139°41'0 0.0
2018-Jun-10 05:59N 35°26' E 139°41'0 0.0
2018-Jun-10 05:29N 35°26' E 139°41'0 0.0
2018-Jun-10 04:59N 35°26' E 139°41'0 0.0
2018-Jun-10 04:29N 35°26' E 139°41'0 0.0
2018-Jun-10 03:59N 35°26' E 139°41'0 0.0
2018-Jun-10 03:29N 35°26' E 139°41'0 0.0
2018-Jun-10 02:59N 35°26' E 139°41'0 0.0
2018-Jun-10 02:26N 35°26' E 139°41'0 0.0
2018-Jun-10 01:56N 35°26' E 139°41'0 0.0
2018-Jun-10 01:29N 35°26' E 139°41'0 0.0
2018-Jun-10 00:59N 35°26' E 139°41'0 0.0
2018-Jun-10 00:29N 35°26' E 139°41'0 0.0
2018-Jun-09 23:59N 35°26' E 139°41'0 0.0
2018-Jun-09 23:29N 35°26' E 139°41'0 0.0
2018-Jun-09 22:59N 35°26' E 139°41'0 0.0
2018-Jun-09 22:29N 35°26' E 139°41'0 0.0
2018-Jun-09 21:59N 35°26' E 139°41'0 0.0
2018-Jun-09 21:29N 35°26' E 139°41'0 0.0
2018-Jun-09 20:59N 35°26' E 139°41'0 0.0
2018-Jun-09 20:29N 35°26' E 139°41'0 0.0
2018-Jun-09 19:59N 35°26' E 139°41'0 0.0
2018-Jun-09 19:29N 35°26' E 139°41'0 0.0
2018-Jun-09 18:59N 35°26' E 139°41'0 0.0
2018-Jun-09 18:29N 35°26' E 139°41'0 0.0
2018-Jun-09 17:59N 35°26' E 139°41'0 0.0
2018-Jun-09 17:29N 35°26' E 139°41'0 0.0
2018-Jun-09 16:59N 35°26' E 139°41'0 0.0
2018-Jun-09 16:29N 35°26' E 139°41'0 0.0
2018-Jun-09 15:59N 35°26' E 139°41'0 0.0
2018-Jun-09 15:29N 35°26' E 139°41'0 0.0
2018-Jun-09 14:29N 35°26' E 139°41'0 0.0
2018-Jun-09 13:59N 35°26' E 139°41'0 0.0
2018-Jun-09 13:29N 35°26' E 139°41'0 0.0
2018-Jun-09 12:59N 35°26' E 139°41'0 0.0
2018-Jun-09 12:29N 35°26' E 139°41'0 0.0
2018-Jun-09 11:59N 35°26' E 139°41'0 0.0
2018-Jun-09 11:29N 35°26' E 139°41'0 0.0
2018-Jun-09 10:59N 35°26' E 139°41'0 0.0
2018-Jun-09 10:29N 35°26' E 139°41'0 0.0
2018-Jun-09 09:59N 35°26' E 139°41'0 0.0
2018-Jun-09 09:29N 35°26' E 139°41'1 1.2
2018-Jun-09 09:01N 35°27' E 139°41'2 3.7
2018-Jun-09 08:30N 35°25' E 139°43'4 7.8
2018-Jun-09 08:00N 35°21' E 139°43'612.7
2018-Jun-09 07:30N 35°16' E 139°46'612.1
2018-Jun-09 07:00N 35°10' E 139°47'5 9.3
2018-Jun-09 06:30N 35°05' E 139°45'611.5
2018-Jun-09 05:58N 34°59' E 139°43'511.5
2018-Jun-09 05:29N 34°54' E 139°45'610.8
2018-Jun-09 04:56N 34°50' E 139°50'  
Track history (hours):
 
Tides and Currents Weather Stations Pressure Air Temp Water Temp Dewpoint Dewpoint Depression Visibility Wind Speed Wind Dir Waves Ship Positions

APL Singapore

Owner: APL Maritime, Ltd, Rockville, MD. More information available from US FCC via Universal Licensing System and Coast Guard Vessel Documentation Center.

Last reported at 2018-Jun-18 03:45 UTC. Time now 2018-Jun-19 17:53 UTC.
Position N 36°00' E 120°13'.

Type: Ship (hazmat cat A). MMSI: 368680000.

Date/timePositionNaut miles runAvg speedWind from/ knotsBaromVisibWave heightAir tempDewpointWater temp
2018-Jun-18 03:45N 36°00' E 120°13'0 0.1
2018-Jun-18 03:14N 36°00' E 120°13'0 0.1
2018-Jun-18 02:18N 36°00' E 120°13'0 0.0
2018-Jun-18 02:00N 36°00' E 120°13'0 0.1
2018-Jun-18 01:24N 36°00' E 120°13'0 0.0
2018-Jun-18 00:48N 36°00' E 120°13'0 0.0
2018-Jun-18 00:27N 36°00' E 120°13'0 0.1
2018-Jun-18 00:00N 36°00' E 120°13'0 0.1
2018-Jun-17 23:12N 36°00' E 120°13'0 0.2
2018-Jun-17 22:55N 36°00' E 120°13'0 0.1
2018-Jun-17 22:15N 36°00' E 120°13'0 0.0
2018-Jun-17 19:41N 36°00' E 120°13'0 0.0
2018-Jun-17 17:17N 36°00' E 120°13'  
2018-Jun-10 10:04N 35°04' E 139°42'117.7
2018-Jun-10 09:59N 35°05' E 139°43'714.9
2018-Jun-10 09:30N 35°12' E 139°46'611.9
2018-Jun-10 09:00N 35°17' E 139°45'612.4
2018-Jun-10 08:30N 35°23' E 139°42'3 6.8
2018-Jun-10 08:00N 35°27' E 139°41'0 0.8
2018-Jun-10 07:29N 35°26' E 139°41'0 0.0
2018-Jun-10 06:59N 35°26' E 139°41'0 0.0
2018-Jun-10 06:29N 35°26' E 139°41'0 0.0
2018-Jun-10 05:59N 35°26' E 139°41'0 0.0
2018-Jun-10 05:29N 35°26' E 139°41'0 0.0
2018-Jun-10 04:59N 35°26' E 139°41'0 0.0
2018-Jun-10 04:29N 35°26' E 139°41'0 0.0
2018-Jun-10 03:59N 35°26' E 139°41'0 0.0
2018-Jun-10 03:29N 35°26' E 139°41'0 0.0
2018-Jun-10 02:59N 35°26' E 139°41'0 0.0
2018-Jun-10 02:26N 35°26' E 139°41'0 0.0
2018-Jun-10 01:56N 35°26' E 139°41'0 0.0
2018-Jun-10 01:29N 35°26' E 139°41'0 0.0
2018-Jun-10 00:59N 35°26' E 139°41'0 0.0
2018-Jun-10 00:29N 35°26' E 139°41'0 0.0
2018-Jun-09 23:59N 35°26' E 139°41'0 0.0
2018-Jun-09 23:29N 35°26' E 139°41'0 0.0
2018-Jun-09 22:59N 35°26' E 139°41'0 0.0
2018-Jun-09 22:29N 35°26' E 139°41'0 0.0
2018-Jun-09 21:59N 35°26' E 139°41'0 0.0
2018-Jun-09 21:29N 35°26' E 139°41'0 0.0
2018-Jun-09 20:59N 35°26' E 139°41'0 0.0
2018-Jun-09 20:29N 35°26' E 139°41'0 0.0
2018-Jun-09 19:59N 35°26' E 139°41'0 0.0
2018-Jun-09 19:29N 35°26' E 139°41'0 0.0
2018-Jun-09 18:59N 35°26' E 139°41'0 0.0
2018-Jun-09 18:29N 35°26' E 139°41'0 0.0
2018-Jun-09 17:59N 35°26' E 139°41'0 0.0
2018-Jun-09 17:29N 35°26' E 139°41'0 0.0
2018-Jun-09 16:59N 35°26' E 139°41'0 0.0
2018-Jun-09 16:29N 35°26' E 139°41'0 0.0
2018-Jun-09 15:59N 35°26' E 139°41'0 0.0
2018-Jun-09 15:29N 35°26' E 139°41'0 0.0
2018-Jun-09 14:29N 35°26' E 139°41'0 0.0
2018-Jun-09 13:59N 35°26' E 139°41'0 0.0
2018-Jun-09 13:29N 35°26' E 139°41'0 0.0
2018-Jun-09 12:59N 35°26' E 139°41'0 0.0
2018-Jun-09 12:29N 35°26' E 139°41'0 0.0
2018-Jun-09 11:59N 35°26' E 139°41'0 0.0
2018-Jun-09 11:29N 35°26' E 139°41'0 0.0
2018-Jun-09 10:59N 35°26' E 139°41'0 0.0
2018-Jun-09 10:29N 35°26' E 139°41'0 0.0
2018-Jun-09 09:59N 35°26' E 139°41'0 0.0
2018-Jun-09 09:29N 35°26' E 139°41'1 1.2
2018-Jun-09 09:01N 35°27' E 139°41'2 3.7
2018-Jun-09 08:30N 35°25' E 139°43'4 7.8
2018-Jun-09 08:00N 35°21' E 139°43'612.7
2018-Jun-09 07:30N 35°16' E 139°46'612.1
2018-Jun-09 07:00N 35°10' E 139°47'5 9.3
2018-Jun-09 06:30N 35°05' E 139°45'611.5
2018-Jun-09 05:58N 34°59' E 139°43'511.5
2018-Jun-09 05:29N 34°54' E 139°45'610.8
2018-Jun-09 04:56N 34°50' E 139°50'  

Dump ship's entire track history